Terminal Aerodrome Forecast
Issued by NWS

Home | Current Version | Previous Version | Text Only | Print | Product List | Glossary On
Versions: 1 2 3 4 5 6 7 8 9 10 11 12 13 14 15 16
000
FTUS46 KPDT 211100
TAFRDM
TAF
KRDM 211120Z 2112/2212 17008KT P6SM OVC050
     FM212100 17009KT P6SM -RA OVC040
     FM220100 19012KT P6SM -RA OVC035=

USA.gov is the U.S. government's official web portal to all federal, state and local government web resources and services.